Time;durP1;ratioP1;P1;durP2;ratioP2;P2;SDS_P1;SDS_P2;PMS_P1;PMS_P2;Temp;Humidity;BMP_temperature;BMP_pressure;BME280_temperature;BME280_humidity;BME280_pressure;Samples;Min_cycle;Max_cycle;Signal;HPM_P1;HPM_P2
2023/10/17 00:01:34;;;;;;;4.73;3.60;;;6.40;70.90;;;8.41;50.44;97805.13;5010912;28;20058;-48
2023/10/17 00:04:19;;;;;;;6.70;4.97;;;6.40;71.30;;;8.36;50.38;97796.78;5010992;28;20045;-46
2023/10/17 00:06:54;;;;;;;4.33;3.60;;;6.30;71.20;;;8.34;50.49;97788.13;5010836;28;20058;-46
2023/10/17 00:09:22;;;;;;;4.43;3.63;;;6.30;71.00;;;8.28;50.58;97779.75;5010768;28;20064;-46
2023/10/17 00:12:04;;;;;;;7.00;3.37;;;6.30;71.50;;;8.25;50.64;97766.75;5013767;28;20049;-45
2023/10/17 00:14:44;;;;;;;8.30;3.73;;;6.20;71.20;;;8.23;50.73;97768.72;5015250;28;20050;-49
2023/10/17 00:17:16;;;;;;;7.93;3.57;;;6.20;71.20;;;8.22;50.51;97759.09;5021903;28;20054;-49
2023/10/17 00:19:45;;;;;;;4.93;3.17;;;6.30;70.40;;;8.24;50.51;97764.28;5015521;28;20054;-49
2023/10/17 00:22:18;;;;;;;5.00;3.80;;;6.30;69.60;;;8.21;50.43;97753.94;5021779;28;20076;-48
2023/10/17 00:24:54;;;;;;;4.65;2.90;;;6.40;69.00;;;8.17;50.52;97741.94;5015033;28;20057;-44
2023/10/17 00:27:22;;;;;;;5.57;3.33;;;6.40;69.30;;;8.19;50.30;97732.84;5007761;28;20057;-46
2023/10/17 00:29:50;;;;;;;5.87;3.07;;;6.40;68.80;;;8.19;50.50;97732.84;5013530;28;20050;-46
2023/10/17 00:32:18;;;;;;;4.60;3.50;;;6.40;68.90;;;8.21;50.57;97733.56;5015371;28;20524;-45
2023/10/17 00:34:46;;;;;;;5.23;3.40;;;6.50;68.60;;;8.18;50.47;97731.19;5013620;28;20073;-48
2023/10/17 00:37:14;;;;;;;5.27;3.90;;;6.40;68.40;;;8.17;50.52;97726.03;5007212;28;20046;-46
2023/10/17 00:39:41;;;;;;;5.23;4.00;;;6.30;68.80;;;8.16;50.26;97729.66;5013669;28;20054;-49
2023/10/17 00:42:09;;;;;;;4.23;3.13;;;6.30;69.00;;;8.15;50.25;97726.19;5012716;28;20053;-47
2023/10/17 00:44:40;;;;;;;4.33;3.30;;;6.30;68.50;;;8.13;50.25;97735.25;5013659;28;20046;-47
2023/10/17 00:47:10;;;;;;;6.23;3.17;;;6.30;68.60;;;8.12;50.43;97728.28;5013085;28;20425;-50
2023/10/17 00:49:44;;;;;;;4.53;3.60;;;6.20;68.50;;;8.13;50.46;97724.66;5012860;28;20052;-46
2023/10/17 00:52:25;;;;;;;4.20;3.20;;;6.30;68.40;;;8.12;50.44;97722.97;5013463;28;20045;-48
2023/10/17 00:54:53;;;;;;;4.67;3.40;;;6.30;68.40;;;8.14;50.24;97728.97;5005291;28;20406;-47
2023/10/17 00:57:26;;;;;;;3.80;3.17;;;6.30;68.60;;;8.13;50.04;97722.00;5013791;28;20041;-44
2023/10/17 00:59:56;;;;;;;5.53;3.30;;;6.30;68.30;;;8.09;50.24;97722.28;5012070;28;20399;-47
2023/10/17 01:02:29;;;;;;;4.27;3.17;;;6.20;68.30;;;8.09;50.18;97716.97;5014177;28;20057;-46
2023/10/17 01:04:59;;;;;;;5.95;3.83;;;6.20;67.90;;;8.06;50.29;97708.47;5012928;28;20046;-48
2023/10/17 01:07:29;;;;;;;4.20;3.60;;;6.30;67.60;;;8.05;50.30;97712.13;5014066;28;20068;-49
2023/10/17 01:10:17;;;;;;;4.63;3.33;;;6.30;68.00;;;8.05;50.06;97710.28;5012813;28;20038;-45
2023/10/17 01:13:03;;;;;;;6.93;3.50;;;6.20;68.10;;;8.06;50.22;97717.28;5013663;28;20038;-49
2023/10/17 01:15:32;;;;;;;5.40;3.30;;;6.20;68.40;;;8.04;50.36;97719.22;5007518;28;20041;-45
2023/10/17 01:18:06;;;;;;;4.27;3.30;;;6.10;68.60;;;8.03;50.04;97717.56;5012799;28;20409;-48
2023/10/17 01:20:37;;;;;;;4.75;3.30;;;6.20;68.20;;;8.02;50.42;97718.53;5013992;28;20497;-45
2023/10/17 01:23:04;;;;;;;4.43;3.20;;;6.20;68.30;;;8.00;50.40;97712.53;5013502;28;20038;-45
2023/10/17 01:25:38;;;;;;;4.47;3.50;;;6.20;68.30;;;7.98;50.53;97714.47;5013401;28;20041;-46
2023/10/17 01:28:06;;;;;;;6.53;4.32;;;6.20;68.20;;;7.98;50.50;97711.84;5012530;28;20042;-47
2023/10/17 01:30:34;;;;;;;4.40;3.50;;;6.10;68.30;;;7.99;50.49;97720.66;5012354;28;20057;-47
2023/10/17 01:33:03;;;;;;;5.63;3.23;;;6.20;68.20;;;7.98;50.37;97713.66;5013626;28;20512;-48
2023/10/17 01:35:32;;;;;;;5.97;3.60;;;6.10;68.30;;;7.98;50.17;97711.84;5012194;28;20414;-49
2023/10/17 01:38:00;;;;;;;6.17;3.50;;;6.20;68.10;;;7.98;50.18;97716.31;5012964;28;20403;-51
2023/10/17 01:40:27;;;;;;;4.00;3.07;;;6.20;67.80;;;7.97;50.35;97706.66;5013570;28;20037;-45
2023/10/17 01:43:00;;;;;;;5.23;3.77;;;6.10;68.50;;;7.94;50.03;97709.63;5011599;28;20042;-47
2023/10/17 01:45:30;;;;;;;4.53;3.53;;;6.00;68.90;;;7.89;50.18;97708.25;5009256;28;20042;-47
2023/10/17 01:47:58;;;;;;;6.53;3.53;;;5.90;69.10;;;7.89;50.04;97707.41;5009878;28;20049;-46
2023/10/17 01:50:26;;;;;;;5.43;3.47;;;6.00;69.10;;;7.85;50.41;97706.84;5013463;28;20489;-47
2023/10/17 01:52:54;;;;;;;5.30;3.67;;;6.00;69.00;;;7.86;50.14;97715.63;5013165;28;20045;-45
2023/10/17 01:55:27;;;;;;;4.70;3.13;;;6.00;68.60;;;7.84;50.39;97709.66;5011882;28;20042;-47
2023/10/17 01:57:57;;;;;;;4.67;3.40;;;6.00;68.80;;;7.86;50.44;97710.34;5011982;28;20042;-49
2023/10/17 02:03:03;;;;;;;4.10;3.07;;;6.00;68.40;;;7.86;50.17;97702.38;5012052;28;20046;-47
2023/10/17 02:05:33;;;;;;;7.37;3.30;;;6.00;68.70;;;7.84;50.31;97701.69;5011899;28;20057;-46
2023/10/17 02:08:01;;;;;;;5.17;3.77;;;5.90;68.50;;;7.81;50.40;97697.53;5011282;28;20049;-48
2023/10/17 02:10:29;;;;;;;4.30;3.13;;;5.80;69.00;;;7.81;50.31;97701.97;5012285;28;20505;-46
2023/10/17 02:12:59;;;;;;;4.63;3.37;;;5.80;69.10;;;7.78;50.38;97692.50;5011920;28;20057;-47
2023/10/17 02:15:28;;;;;;;6.90;4.00;;;5.80;68.80;;;7.77;50.12;97690.81;5005365;28;20042;-47
2023/10/17 02:17:57;;;;;;;5.70;3.20;;;5.80;69.10;;;7.76;50.37;97696.28;5011800;28;20038;-49
2023/10/17 02:23:02;;;;;;;5.07;3.90;;;5.70;69.50;;;7.69;50.59;97698.63;5011421;28;20057;-49
2023/10/17 02:25:33;;;;;;;6.77;4.30;;;5.70;70.20;;;7.67;50.42;97700.59;5011091;28;20054;-45
2023/10/17 02:28:04;;;;;;;17.20;4.53;;;5.70;70.30;;;7.67;50.46;97713.84;5011509;28;20050;-46
2023/10/17 02:30:31;;;;;;;5.13;3.53;;;5.60;70.10;;;7.61;50.40;97715.25;5012563;28;20432;-45
2023/10/17 02:33:01;;;;;;;9.07;5.00;;;5.50;70.20;;;7.56;50.19;97719.28;5011794;28;20045;-45
2023/10/17 02:35:39;;;;;;;6.23;4.03;;;5.30;70.60;;;7.51;50.27;97719.72;5012460;28;20516;-45
2023/10/17 02:38:08;;;;;;;6.07;3.77;;;5.30;71.00;;;7.46;50.65;97714.00;5011961;28;20042;-50
2023/10/17 02:40:38;;;;;;;5.40;3.67;;;5.30;71.50;;;7.43;50.70;97717.78;5012377;28;20118;-47
2023/10/17 02:43:06;;;;;;;6.57;4.00;;;5.30;71.70;;;7.44;50.98;97719.44;5011640;28;20049;-45
2023/10/17 02:45:34;;;;;;;5.77;3.67;;;5.30;71.70;;;7.43;51.20;97722.22;5012240;28;20046;-46
2023/10/17 02:48:23;;;;;;;7.03;4.30;;;5.40;71.70;;;7.43;51.09;97724.88;5011230;28;20046;-46
2023/10/17 02:50:58;;;;;;;5.57;4.20;;;5.40;71.70;;;7.44;51.17;97723.91;5011936;28;20037;-48
2023/10/17 02:53:34;;;;;;;7.33;4.00;;;5.40;72.00;;;7.44;50.95;97715.94;5011055;28;20044;-47
2023/10/17 02:56:18;;;;;;;5.10;3.63;;;5.50;71.70;;;7.44;51.00;97715.94;5011281;28;20049;-45
2023/10/17 02:59:12;;;;;;;4.13;3.15;;;5.50;71.20;;;7.47;51.59;97723.63;5011842;28;20038;-46
2023/10/17 03:01:42;;;;;;;5.28;3.20;;;5.50;71.20;;;7.48;51.43;97722.63;5011778;28;20048;-47
2023/10/17 03:04:13;;;;;;;6.57;3.97;;;5.60;71.00;;;7.49;51.48;97714.56;5011927;28;20449;-46
2023/10/17 03:06:44;;;;;;;5.77;3.20;;;5.60;70.60;;;7.51;51.18;97709.13;5010408;28;20061;-45
2023/10/17 03:17:11;;;;;;;4.83;3.53;;;5.60;70.60;;;7.60;51.25;97691.53;5010062;28;20065;-46
2023/10/17 03:19:39;;;;;;;4.87;3.27;;;5.70;70.10;;;7.58;51.20;97693.50;5018501;28;20038;-47
2023/10/17 03:22:24;;;;;;;5.10;3.70;;;5.70;70.10;;;7.58;51.42;97693.50;5011225;28;20413;-45
2023/10/17 03:25:01;;;;;;;4.07;3.20;;;5.80;69.70;;;7.58;51.15;97691.69;5010764;28;20045;-44
2023/10/17 03:27:36;;;;;;;5.57;3.70;;;5.80;69.90;;;7.60;51.38;97692.38;5011084;28;20052;-49
2023/10/17 03:30:09;;;;;;;6.50;3.27;;;5.80;69.80;;;7.63;51.08;97686.78;5010435;28;20050;-48
2023/10/17 03:32:52;;;;;;;5.47;3.40;;;5.80;69.70;;;7.66;51.12;97704.25;4995901;28;20046;-48
2023/10/17 03:35:21;;;;;;;4.80;4.10;;;5.80;69.40;;;7.69;51.15;97711.88;5011335;28;20053;-47
2023/10/17 03:37:49;;;;;;;4.63;3.30;;;5.80;69.50;;;7.71;51.19;97709.09;5011661;28;20037;-47
2023/10/17 03:43:01;;;;;;;6.67;3.80;;;5.80;69.70;;;7.72;50.92;97701.03;5011062;28;20072;-48
2023/10/17 03:45:35;;;;;;;5.70;3.40;;;5.80;69.80;;;7.73;51.13;97705.31;5011851;28;20060;-45
2023/10/17 03:48:15;;;;;;;4.83;3.80;;;5.80;69.80;;;7.74;51.09;97703.53;5011446;28;20054;-47
2023/10/17 03:50:57;;;;;;;6.90;4.13;;;5.80;69.90;;;7.73;51.16;97710.63;5004512;28;20050;-47
2023/10/17 03:53:28;;;;;;;5.73;3.33;;;5.80;70.30;;;7.73;51.26;97710.63;5010974;28;20046;-46
2023/10/17 03:56:00;;;;;;;6.00;3.67;;;5.80;70.30;;;7.74;51.37;97704.34;5010064;28;20045;-45
2023/10/17 04:01:00;;;;;;;5.93;4.07;;;5.80;69.90;;;7.77;51.26;97706.72;5011052;28;20048;-47
2023/10/17 04:03:31;;;;;;;5.87;3.87;;;5.90;70.10;;;7.76;50.74;97698.94;5018128;28;20052;-46
2023/10/17 04:08:59;;;;;;;5.80;3.70;;;5.80;70.00;;;7.75;50.90;97692.75;5009211;28;20045;-50
2023/10/17 04:11:33;;;;;;;7.43;4.17;;;5.80;70.20;;;7.75;51.14;97692.75;5010809;28;20160;-46
2023/10/17 04:14:01;;;;;;;8.95;5.32;;;5.80;70.50;;;7.75;51.17;97689.28;5010859;28;20301;-45
2023/10/17 04:16:35;;;;;;;6.87;4.83;;;5.80;70.80;;;7.76;51.23;97685.66;5010756;28;20041;-46
2023/10/17 04:19:07;;;;;;;;;;;5.80;70.90;;;7.74;50.98;97688.47;5011039;28;20052;-46
2023/10/17 04:21:45;;;;;;;4.97;4.03;;;5.80;71.10;;;7.75;51.17;97686.63;5002995;28;20335;-46
2023/10/17 04:24:26;;;;;;;6.33;3.87;;;5.70;71.20;;;7.73;50.94;97681.47;5010962;28;20046;-47
2023/10/17 04:27:06;;;;;;;3.97;3.30;;;5.70;71.20;;;7.72;51.30;97686.94;5010824;28;20038;-45
2023/10/17 04:29:34;;;;;;;7.57;3.57;;;5.70;71.40;;;7.73;51.13;97680.66;5009080;28;20046;-45
2023/10/17 04:32:04;;;;;;;5.20;3.93;;;5.70;71.20;;;7.73;51.67;97678.00;5017724;28;20512;-47
2023/10/17 04:34:32;;;;;;;6.27;3.33;;;5.70;71.10;;;7.72;51.41;97669.22;5009173;28;20049;-45
2023/10/17 04:37:05;;;;;;;5.40;3.60;;;5.70;71.20;;;7.72;51.52;97665.75;5010740;28;20049;-50
2023/10/17 04:39:35;;;;;;;5.57;3.80;;;5.80;71.00;;;7.75;51.50;97665.44;5010264;28;20049;-46
2023/10/17 04:42:05;;;;;;;7.83;5.20;;;5.80;70.60;;;7.76;51.46;97667.13;5010096;28;20042;-44
2023/10/17 04:44:38;;;;;;;6.30;3.83;;;5.90;70.20;;;7.77;51.48;97663.47;5010606;28;20050;-47
2023/10/17 04:49:36;;;;;;;6.93;3.67;;;6.00;69.70;;;7.81;51.82;97657.75;5008969;28;20416;-43
2023/10/17 04:52:18;;;;;;;5.80;3.70;;;6.00;69.80;;;7.82;51.53;97648.00;5010618;28;20113;-45
2023/10/17 04:54:47;;;;;;;5.87;3.90;;;6.00;70.20;;;7.85;51.26;97651.19;5003613;28;20049;-45
2023/10/17 04:57:16;;;;;;;7.60;4.07;;;6.00;70.00;;;7.86;51.14;97646.72;5012669;28;20524;-45
2023/10/17 04:59:51;;;;;;;5.40;3.53;;;5.90;70.30;;;7.87;51.31;97643.06;5013941;28;20092;-46
2023/10/17 06:17:31;;;;;;;6.93;4.33;;;5.50;73.70;;;7.57;52.18;97682.06;5010712;28;20061;-46
2023/10/17 06:19:59;;;;;;;11.27;6.73;;;5.50;74.00;;;7.56;52.35;97682.19;5012255;28;20042;-50
2023/10/17 06:22:49;;;;;;;7.20;4.97;;;5.50;73.80;;;7.56;52.44;97682.19;5012254;28;20053;-46
2023/10/17 06:26:05;;;;;;;10.50;5.20;;;5.50;74.00;;;7.57;52.25;97679.41;5012411;28;20049;-47
2023/10/17 06:28:26;;;;;;;7.10;5.20;;;5.50;74.00;;;7.58;52.44;97689.03;5006382;28;20088;-44
2023/10/17 06:33:42;;;;;;;9.63;5.07;;;5.60;74.00;;;7.64;52.21;97698.25;5012302;28;20053;-44
2023/10/17 06:36:25;;;;;;;6.70;4.87;;;5.70;73.70;;;7.67;52.33;97700.59;5012263;28;20049;-47
2023/10/17 06:38:54;;;;;;;6.53;4.57;;;5.70;73.30;;;7.69;52.38;97706.59;5004442;28;20041;-48
2023/10/17 06:41:27;;;;;;;9.00;5.60;;;5.70;73.50;;;7.70;52.38;97708.28;5012490;28;20486;-46
2023/10/17 06:44:05;;;;;;;9.13;5.32;;;5.70;73.80;;;7.71;52.58;97704.63;5005196;28;20042;-48
2023/10/17 06:46:40;;;;;;;8.60;4.83;;;5.70;74.10;;;7.69;52.61;97709.25;5011126;28;20058;-45
2023/10/17 06:49:08;;;;;;;6.60;4.70;;;5.60;74.20;;;7.71;52.59;97701.97;5011710;28;20048;-45
2023/10/17 06:51:36;;;;;;;8.20;4.73;;;5.60;74.20;;;7.71;52.54;97707.28;5011878;28;20050;-44
2023/10/17 06:54:12;;;;;;;9.27;5.67;;;5.80;73.80;;;7.71;52.32;97706.44;5012421;28;20053;-46
2023/10/17 06:56:39;;;;;;;6.63;4.47;;;5.80;73.10;;;7.74;52.61;97698.22;5011793;28;20117;-45
2023/10/17 06:59:24;;;;;;;8.97;4.13;;;5.80;73.10;;;7.79;52.42;97694.19;5010602;28;20097;-46
2023/10/17 07:02:10;;;;;;;6.40;4.50;;;5.90;73.30;;;7.82;52.66;97693.88;5012035;28;20049;-48
2023/10/17 07:04:40;;;;;;;7.23;4.20;;;5.90;73.40;;;7.85;52.55;97690.09;5012033;28;20061;-45
2023/10/17 07:07:09;;;;;;;7.77;4.20;;;5.90;73.00;;;7.90;51.90;97687.88;5011855;28;20486;-45
2023/10/17 07:09:40;;;;;;;5.57;3.83;;;6.00;72.60;;;7.90;52.28;97682.56;5011519;28;20050;-45
2023/10/17 07:12:17;;;;;;;6.53;3.90;;;6.00;73.00;;;7.92;52.57;97682.44;5011606;28;20080;-48
2023/10/17 07:14:48;;;;;;;7.27;4.67;;;5.90;73.10;;;7.94;52.46;97683.13;5011904;28;20509;-46
2023/10/17 07:17:28;;;;;;;4.80;3.73;;;5.90;73.50;;;7.97;52.45;97678.38;5011494;28;20049;-47
2023/10/17 07:20:01;;;;;;;5.83;4.30;;;6.00;73.70;;;8.00;52.71;97678.06;5003188;28;20042;-46
2023/10/17 07:22:35;;;;;;;8.50;4.43;;;6.00;73.80;;;8.04;52.48;97683.91;5011371;28;20478;-44
2023/10/17 07:25:14;;;;;;;7.60;4.67;;;6.10;73.30;;;8.08;52.67;97680.84;5011709;28;20064;-47
2023/10/17 07:27:44;;;;;;;5.43;4.27;;;6.20;73.30;;;8.12;52.68;97678.72;5010230;28;20049;-44
2023/10/17 07:30:35;;;;;;;8.27;5.53;;;6.30;73.30;;;8.17;52.66;97673.00;5011197;28;20056;-44
2023/10/17 07:33:05;;;;;;;10.13;5.50;;;6.30;73.30;;;8.19;52.61;97671.84;5009978;28;20049;-43
2023/10/17 07:35:36;;;;;;;7.90;5.77;;;6.40;72.20;;;8.25;52.57;97681.06;5011247;28;20045;-43
2023/10/17 07:38:04;;;;;;;8.13;5.10;;;6.50;71.50;;;8.27;52.42;97679.91;5010949;28;20517;-44
2023/10/17 07:40:33;;;;;;;8.10;6.20;;;6.60;71.00;;;8.34;52.60;97682.84;5011295;28;20045;-44
2023/10/17 07:43:01;;;;;;;8.43;5.53;;;6.70;70.60;;;8.37;52.56;97665.78;5002171;28;20053;-44
2023/10/17 07:45:38;;;;;;;7.00;5.17;;;6.80;70.00;;;8.39;52.24;97669.13;5011388;28;20049;-43
2023/10/17 07:48:19;;;;;;;7.80;5.43;;;6.80;69.70;;;8.39;52.31;97663.81;5004570;28;20053;-44
2023/10/17 07:50:53;;;;;;;12.77;5.77;;;6.80;70.00;;;8.42;52.43;97661.75;5010407;28;20076;-42
2023/10/17 07:53:21;;;;;;;9.05;5.72;;;6.70;70.60;;;8.50;52.45;97663.66;5011153;28;20045;-43
2023/10/17 07:56:05;;;;;;;7.93;5.33;;;6.80;71.00;;;8.56;52.54;97667.53;5009826;28;20056;-44
2023/10/17 07:58:38;;;;;;;7.20;5.43;;;6.90;71.20;;;8.62;52.75;97661.63;5010679;28;20230;-45
2023/10/17 08:01:14;;;;;;;8.40;5.32;;;7.00;71.00;;;8.70;52.50;97664.38;5011073;28;20049;-44
2023/10/17 08:04:13;;;;;;;8.00;5.87;;;7.00;71.20;;;8.79;52.68;97663.50;5011004;28;20050;-46
2023/10/17 08:06:41;;;;;;;8.83;5.83;;;7.10;72.00;;;8.87;52.58;97655.59;5017939;28;20045;-46
2023/10/17 08:12:08;;;;;;;9.73;5.57;;;7.30;71.50;;;9.00;52.56;97651.75;5003682;28;20046;-45
2023/10/17 08:14:42;;;;;;;7.23;5.03;;;7.40;70.60;;;9.07;52.63;97644.84;5009771;28;20041;-48
2023/10/17 08:17:10;;;;;;;7.95;5.25;;;7.50;70.60;;;9.14;52.31;97648.56;5010776;28;20076;-46
2023/10/17 08:22:27;;;;;;;10.70;5.50;;;7.70;69.80;;;9.30;52.21;97660.34;5003028;28;20045;-44
2023/10/17 08:24:57;;;;;;;8.43;4.70;;;7.80;69.60;;;9.35;52.36;97656.22;5010422;28;20042;-47
2023/10/17 08:30:01;;;;;;;10.03;6.33;;;7.90;69.60;;;9.50;52.18;97650.34;5010240;28;20056;-45
2023/10/17 08:34:59;;;;;;;8.37;6.33;;;8.00;69.80;;;9.60;52.02;97659.91;5014862;28;20053;-47
2023/10/17 08:37:28;;;;;;;20.97;6.77;;;8.00;70.10;;;9.67;52.30;97652.16;5014377;28;20413;-45
2023/10/17 08:39:59;;;;;;;9.83;5.50;;;8.00;70.20;;;9.71;52.31;97650.84;5014072;28;20041;-45
2023/10/17 08:44:59;;;;;;;11.70;5.17;;;8.10;71.70;;;9.82;52.01;97663.88;5014456;28;20038;-46
2023/10/17 08:47:30;;;;;;;14.67;6.57;;;8.10;70.70;;;9.88;52.11;97664.25;5014097;28;20050;-47
2023/10/17 08:50:04;;;;;;;6.70;5.10;;;8.20;70.50;;;9.92;52.16;97662.97;5013948;28;20501;-46
2023/10/17 08:52:35;;;;;;;9.17;6.23;;;8.30;70.40;;;9.96;52.10;97665.13;5014242;28;20056;-43
2023/10/17 08:55:04;;;;;;;8.17;5.77;;;8.30;70.20;;;9.99;51.81;97664.84;5006366;28;20041;-43
2023/10/17 08:57:32;;;;;;;10.10;6.10;;;8.30;69.30;;;10.02;52.10;97661.00;5014218;28;20046;-45
2023/10/17 09:00:23;;;;;;;8.10;5.47;;;8.40;69.30;;;10.00;52.10;97661.19;5013790;28;20049;-43
2023/10/17 09:03:09;;;;;;;9.87;5.93;;;8.40;68.80;;;10.05;51.87;97664.19;5013964;28;20287;-44
2023/10/17 09:08:55;;;;;;;9.70;5.13;;;8.60;67.50;;;10.16;51.67;97656.97;5029246;28;20069;-44
2023/10/17 09:11:30;;;;;;;9.70;6.80;;;8.60;68.50;;;10.24;51.61;97662.31;5014432;28;20045;-44
2023/10/17 09:14:16;;;;;;;10.20;6.27;;;8.70;68.20;;;10.26;51.69;97657.66;5013671;28;20068;-44
2023/10/17 09:19:52;;;;;;;11.17;6.83;;;8.80;67.70;;;10.31;51.38;97650.06;5011721;28;20053;-47
2023/10/17 09:22:26;;;;;;;9.80;6.57;;;8.90;67.60;;;10.33;51.41;97645.44;5012094;28;20226;-43
2023/10/17 09:24:59;;;;;;;11.30;6.40;;;8.90;67.90;;;10.41;51.85;97640.16;5011964;28;20414;-44
2023/10/17 09:27:31;;;;;;;12.10;7.27;;;8.90;67.70;;;10.47;51.64;97638.66;5018999;28;20417;-48
2023/10/17 09:29:59;;;;;;;8.33;6.33;;;8.90;68.00;;;10.54;51.65;97642.34;5018767;28;20046;-42
2023/10/17 09:32:32;;;;;;;11.57;6.60;;;9.00;67.60;;;10.63;51.34;97648.53;5010699;28;20058;-46
2023/10/17 09:35:15;;;;;;;9.15;7.30;;;9.10;67.60;;;10.69;50.82;97647.06;5013314;28;20042;-43
2023/10/17 09:37:45;;;;;;;8.17;6.13;;;9.20;66.70;;;10.75;50.98;97649.06;5013222;28;20097;-45
2023/10/17 09:40:29;;;;;;;7.83;6.17;;;9.20;66.90;;;10.79;51.00;97642.41;5013212;28;20042;-49
2023/10/17 09:42:59;;;;;;;10.40;7.17;;;9.20;66.40;;;10.82;50.71;97645.59;5012261;28;20046;-46
2023/10/17 09:45:35;;;;;;;10.63;7.07;;;9.30;66.50;;;10.88;50.49;97651.28;5013417;28;20046;-44
2023/10/17 09:48:05;;;;;;;9.13;7.37;;;9.30;65.90;;;10.91;50.58;97654.44;5013025;28;20042;-46
2023/10/17 09:50:37;;;;;;;8.60;6.90;;;9.40;65.90;;;10.95;50.78;97652.28;5013251;28;20429;-43
2023/10/17 09:53:16;;;;;;;9.33;7.10;;;9.50;65.80;;;11.01;50.36;97647.16;5012909;28;20038;-47
2023/10/17 09:55:50;;;;;;;10.87;6.43;;;9.60;65.20;;;11.03;50.66;97647.81;5013115;28;20038;-44
2023/10/17 09:58:45;;;;;;;11.27;6.90;;;9.60;65.10;;;11.08;50.27;97657.13;5012828;28;20038;-48
2023/10/17 10:01:22;;;;;;;10.63;6.70;;;9.60;65.00;;;11.10;50.15;97655.97;5013099;28;20050;-46
2023/10/17 10:04:01;;;;;;;12.27;7.53;;;9.70;65.50;;;11.09;50.21;97654.31;5019928;28;20060;-45
2023/10/17 10:06:34;;;;;;;14.90;7.10;;;9.80;64.30;;;11.16;50.17;97660.63;5012778;28;20050;-45
2023/10/17 10:09:01;;;;;;;13.20;7.47;;;9.70;65.00;;;11.20;50.57;97658.47;5012326;28;20046;-48
2023/10/17 10:11:48;;;;;;;10.50;6.57;;;9.80;64.80;;;11.26;50.08;97657.81;5011561;28;20053;-45
2023/10/17 10:14:33;;;;;;;9.80;6.90;;;9.80;64.70;;;11.30;50.12;97659.19;5005345;28;20045;-43
2023/10/17 10:17:04;;;;;;;12.10;6.87;;;9.90;65.30;;;11.32;50.63;97654.50;5019964;28;20042;-44
2023/10/17 10:19:41;;;;;;;10.10;6.67;;;10.00;65.30;;;11.38;49.99;97661.84;5012418;28;20053;-46
2023/10/17 10:22:13;;;;;;;11.80;7.07;;;9.90;64.40;;;11.43;50.11;97653.34;5012347;28;20042;-45
2023/10/17 10:24:46;;;;;;;13.15;7.63;;;10.00;65.30;;;11.41;49.95;97653.50;5012748;28;20058;-43
2023/10/17 10:27:24;;;;;;;9.38;7.32;;;9.90;65.30;;;11.45;50.39;97654.00;5019633;28;20046;-44
2023/10/17 10:30:17;;;;;;;12.80;8.93;;;10.00;65.30;;;11.50;50.20;97654.34;5019165;28;20045;-44
2023/10/17 10:32:46;;;;;;;13.90;7.80;;;10.00;65.20;;;11.58;49.81;97654.34;5012152;28;20049;-47
2023/10/17 10:35:15;;;;;;;13.70;8.70;;;10.00;64.80;;;11.64;50.02;97644.84;5012546;28;20168;-45
2023/10/17 10:37:54;;;;;;;15.23;8.57;;;10.10;64.80;;;11.72;49.66;97647.47;4995530;28;20050;-44
2023/10/17 10:40:30;;;;;;;12.13;7.90;;;10.30;64.30;;;11.78;49.83;97644.13;5011082;28;20050;-46
2023/10/17 10:43:01;;;;;;;10.13;7.93;;;10.30;64.10;;;11.83;49.47;97641.00;5011467;28;20049;-44
2023/10/17 10:45:42;;;;;;;11.80;8.10;;;10.30;64.00;;;11.88;49.80;97643.97;5012119;28;20041;-46
2023/10/17 10:48:14;;;;;;;11.60;8.17;;;10.40;64.10;;;11.95;49.56;97646.81;5010301;28;20042;-44
2023/10/17 10:50:48;;;;;;;12.23;7.73;;;10.50;64.60;;;12.01;49.70;97646.16;5012173;28;20046;-45
2023/10/17 10:53:22;;;;;;;11.63;8.75;;;10.60;64.60;;;12.06;49.46;97646.47;5011612;28;20429;-46
2023/10/17 10:56:00;;;;;;;;;;;10.60;64.30;;;12.06;49.71;97645.63;5019006;28;20425;-44
2023/10/17 10:58:33;;;;;;;10.23;7.50;;;10.60;63.30;;;12.10;49.50;97645.13;5011681;28;19929;-45
2023/10/17 11:01:04;;;;;;;15.00;8.82;;;10.60;63.90;;;12.13;49.38;97633.28;5018888;28;20053;-44
2023/10/17 11:03:38;;;;;;;11.43;7.73;;;10.70;63.90;;;12.16;49.17;97633.75;5018835;28;20045;-44
2023/10/17 11:06:08;;;;;;;12.00;8.63;;;10.80;63.90;;;12.21;49.38;97633.25;5018650;28;20516;-45
2023/10/17 11:08:43;;;;;;;11.60;8.80;;;10.80;63.50;;;12.25;49.32;97634.56;5011749;28;20034;-43
2023/10/17 11:11:16;;;;;;;15.27;8.27;;;10.80;63.30;;;12.31;49.16;97639.22;5004054;28;20498;-43
2023/10/17 11:13:48;;;;;;;11.73;8.50;;;10.90;63.20;;;12.34;49.05;97633.53;5002592;28;20041;-44
2023/10/17 11:16:26;;;;;;;11.27;8.00;;;11.00;62.60;;;12.39;49.03;97633.84;5003630;28;20058;-46
2023/10/17 11:18:55;;;;;;;11.70;8.37;;;11.00;62.80;;;12.40;48.65;97640.84;5011252;28;20494;-47
2023/10/17 11:21:23;;;;;;;12.57;8.48;;;11.00;62.10;;;12.41;49.00;97628.34;5011546;28;20053;-44
2023/10/17 11:24:04;;;;;;;12.90;8.00;;;11.00;62.20;;;12.45;48.76;97634.19;5011259;28;20391;-43
2023/10/17 11:26:36;;;;;;;14.07;7.87;;;11.10;61.70;;;12.51;48.81;97628.13;5011510;28;20050;-46
2023/10/17 11:29:05;;;;;;;14.10;8.13;;;11.10;62.50;;;12.54;48.67;97625.09;5011198;28;20049;-43
2023/10/17 11:31:33;;;;;;;12.48;8.40;;;11.20;62.60;;;12.61;49.14;97628.75;5011657;28;20489;-45
2023/10/17 11:34:04;;;;;;;19.73;10.90;;;11.30;63.00;;;12.66;48.71;97621.06;5011086;28;20049;-47
2023/10/17 11:36:47;;;;;;;19.80;11.52;;;11.30;62.50;;;12.67;48.73;97620.03;5011381;28;20038;-44
2023/10/17 11:39:15;;;;;;;16.88;9.95;;;11.40;61.70;;;12.72;49.01;97614.19;5011109;28;20042;-44
2023/10/17 11:41:53;;;;;;;16.13;10.70;;;11.40;62.40;;;12.77;48.46;97609.13;5010784;28;20045;-46
2023/10/17 11:44:25;;;;;;;19.02;11.63;;;11.40;62.10;;;12.79;48.75;97604.44;5004068;28;20064;-49
2023/10/17 11:47:03;;;;;;;21.48;14.02;;;11.50;62.30;;;12.79;48.75;97596.44;5011065;28;20042;-44
2023/10/17 11:49:39;;;;;;;21.10;12.45;;;11.50;62.60;;;12.85;48.54;97597.56;5010958;28;20049;-44
2023/10/17 11:52:10;;;;;;;19.27;12.07;;;11.50;61.90;;;12.86;48.67;97594.72;5011189;28;20046;-47
2023/10/17 11:54:58;;;;;;;23.95;11.90;;;11.50;62.10;;;12.90;48.73;97593.34;5009947;28;20504;-43
2023/10/17 11:57:25;;;;;;;22.42;12.32;;;11.50;61.50;;;12.96;48.44;97594.50;5004003;28;20145;-43
2023/10/17 12:00:07;;;;;;;19.75;11.55;;;11.50;62.00;;;12.99;48.57;97594.97;5009709;28;20045;-44
2023/10/17 12:02:41;;;;;;;13.32;9.25;;;11.60;62.20;;;13.03;48.60;97592.78;5010485;28;20038;-44
2023/10/17 12:05:20;;;;;;;13.48;8.90;;;11.70;62.00;;;13.10;48.44;97583.00;5010727;28;20049;-43
2023/10/17 12:07:57;;;;;;;15.50;8.48;;;11.70;62.00;;;13.10;48.12;97591.03;5010934;28;20052;-45
2023/10/17 12:10:26;;;;;;;12.30;9.15;;;11.80;61.30;;;13.10;48.49;97592.88;5003871;28;20046;-42
2023/10/17 12:12:58;;;;;;;13.13;8.68;;;11.80;61.30;;;13.13;48.56;97577.31;5010647;28;20069;-47
2023/10/17 12:15:27;;;;;;;14.15;8.48;;;11.90;61.60;;;13.23;48.66;97574.41;5002574;28;20045;-46
2023/10/17 12:17:54;;;;;;;13.40;8.80;;;12.00;61.70;;;13.32;48.74;97569.88;5010357;28;20488;-45
2023/10/17 12:20:28;;;;;;;14.77;10.45;;;12.10;61.90;;;13.40;48.44;97572.47;5011067;28;20097;-47
2023/10/17 12:23:02;;;;;;;;;;;12.20;61.40;;;13.36;48.48;97555.13;5011339;28;20037;-42
2023/10/17 12:25:32;;;;;;;12.18;8.35;;;12.10;59.50;;;13.39;48.06;97555.56;5009883;28;19925;-45
2023/10/17 12:28:02;;;;;;;13.20;8.60;;;12.10;60.70;;;13.37;47.96;97556.78;5017271;28;20042;-45
2023/10/17 12:30:35;;;;;;;12.57;8.40;;;12.20;60.10;;;13.38;47.75;97553.09;5011070;28;20481;-45
2023/10/17 12:33:05;;;;;;;10.32;8.07;;;12.10;60.10;;;13.35;47.76;97556.13;5010716;28;20406;-43
2023/10/17 12:35:33;;;;;;;12.85;8.45;;;12.10;60.20;;;13.38;47.90;97548.56;5010310;28;20042;-45
2023/10/17 12:38:14;;;;;;;10.80;8.20;;;12.10;60.30;;;13.41;47.91;97550.03;5002159;28;20051;-43
2023/10/17 12:40:42;;;;;;;11.45;8.25;;;12.20;60.70;;;13.45;47.75;97540.66;5005287;28;20128;-44
2023/10/17 12:43:11;;;;;;;10.52;7.70;;;12.20;60.30;;;13.50;47.63;97551.63;5004765;28;20145;-45
2023/10/17 12:45:39;;;;;;;10.63;8.15;;;12.30;60.30;;;13.51;47.51;97544.44;5004344;28;20049;-47
2023/10/17 12:48:11;;;;;;;13.55;9.35;;;12.20;59.70;;;13.52;47.66;97540.75;5003968;28;20053;-47
2023/10/17 12:50:44;;;;;;;10.82;7.63;;;12.30;60.20;;;13.52;47.62;97536.25;5006490;28;20050;-44
2023/10/17 12:53:13;;;;;;;11.43;8.40;;;12.20;60.30;;;13.55;47.52;97538.56;5023710;28;20051;-45
2023/10/17 12:55:41;;;;;;;11.52;8.07;;;12.20;60.20;;;13.51;47.60;97539.09;5006060;28;20690;-44